INFORMACIóN METAR y TAF
METAR FOR KMIA
ADDS - METARS form results

(0333 UTC 31 October 2020)
Data provider http://aviationweather.gov/metar/data/
 
METAR text: KMIA 310323Z VRB05KT 10SM TS SCT011 BKN020CB BKN130 BKN250 26/24 A3002 RMK AO2 LTG DSNT N AND NE TSB06 OCNL LTGICCG N-NE TS N-NE MOV SW T02610239 $
Conditions at: KMIA (MIAMI , FL, US) observed 0323 UTC 31 October 2020
Temperature: 26.1°C (79°F)
Dewpoint: 23.9°C (75°F) [RH = 88%]
Pressure (altimeter): 30.02 inches Hg (1016.7 mb)
Winds: variable direction winds at 6 MPH (5 knots; 2.6 m/s)
Visibility: 10 or more miles (16+ km)
Ceiling: 2000 feet AGL
Clouds: scattered clouds at 1100 feet AGL
broken clouds at 2000 feet AGL
broken clouds at 13000 feet AGL
broken clouds at 25000 feet AGL
Weather: TS  (thunderstorm)
SOME DATA ABOVE MAY BE INACCURATE!!!
"$" is an indication the sensor requires maintenance

METAR text: KMIA 310306Z COR 05004KT 10SM TS OVC011CB 27/25 A3001 RMK AO2 TSB06 OCNL LTGICCG NE TS NE MOV SW T02670250 $
Conditions at: KMIA (MIAMI , FL, US) observed 0306 UTC 31 October 2020
Temperature: 26.7°C (80°F)
Dewpoint: 25.0°C (77°F) [RH = 90%]
Pressure (altimeter): 30.01 inches Hg (1016.3 mb)
Winds: from the NE (50 degrees) at 5 MPH (4 knots; 2.1 m/s)
Visibility: 10 or more miles (16+ km)
Ceiling: 1100 feet AGL
Clouds: overcast cloud deck at 1100 feet AGL
Weather: TS  (thunderstorm)
SOME DATA ABOVE MAY BE INACCURATE!!!
"$" is an indication the sensor requires maintenance

METAR text: KMIA 310253Z 00000KT 10SM BKN012 OVC018 26/24 A3001 RMK AO2 RAE04B25E52 SLP161 CB DSNT NE MOV SW P0001 60060 T02610244 51014 $
Conditions at: KMIA (MIAMI , FL, US) observed 0253 UTC 31 October 2020
Temperature: 26.1°C (79°F)
Dewpoint: 24.4°C (76°F) [RH = 90%]
Pressure (altimeter): 30.01 inches Hg (1016.3 mb)
[Sea-level pressure: 1016.1 mb]
Winds: calm
Visibility: 10 or more miles (16+ km)
Ceiling: 1200 feet AGL
Clouds: broken clouds at 1200 feet AGL
overcast cloud deck at 1800 feet AGL
Weather:
SOME DATA ABOVE MAY BE INACCURATE!!!
"$" is an indication the sensor requires maintenance

METAR text: KMIA 310245Z 09005KT 10SM -RA BKN012 OVC018 26/25 A3001 RMK AO2 RAE04B25 CB DSNT NE MOV SW P0001 T02610250 $
Conditions at: KMIA (MIAMI , FL, US) observed 0245 UTC 31 October 2020
Temperature: 26.1°C (79°F)
Dewpoint: 25.0°C (77°F) [RH = 94%]
Pressure (altimeter): 30.01 inches Hg (1016.3 mb)
Winds: from the E (90 degrees) at 6 MPH (5 knots; 2.6 m/s)
Visibility: 10 or more miles (16+ km)
Ceiling: 1200 feet AGL
Clouds: broken clouds at 1200 feet AGL
overcast cloud deck at 1800 feet AGL
Weather: -RA  (light rain)
SOME DATA ABOVE MAY BE INACCURATE!!!
"$" is an indication the sensor requires maintenance

Forecast for: KMIA (MIAMI , FL, US)
Text: KMIA 302328Z 3100/0106 12008KT P6SM VCSH SCT020 BKN035
Forecast period: 0000 to 0300 UTC 31 October 2020
Forecast type: FROM: standard forecast or significant change
Winds: from the ESE (120 degrees) at 9 MPH (8 knots; 4.1 m/s)
Visibility: 6 or more miles (10+ km)
Ceiling: 3500 feet AGL
Clouds: scattered clouds at 2000 feet AGL
broken clouds at 3500 feet AGL
Weather: VCSH  (showers in vicinity)
Text: FM310300 VRB04KT P6SM VCSH FEW015 SCT025 BKN050
Forecast period: 0300 to 1600 UTC 31 October 2020
Forecast type: FROM: standard forecast or significant change
Winds: variable direction winds at 5 MPH (4 knots; 2.1 m/s)
Visibility: 6 or more miles (10+ km)
Ceiling: 5000 feet AGL
Clouds: few clouds at 1500 feet AGL
scattered clouds at 2500 feet AGL
broken clouds at 5000 feet AGL
Weather: VCSH  (showers in vicinity)
Text: FM311600 07010KT P6SM VCSH SCT025 BKN050
Forecast period: 1600 UTC 31 October 2020 to 0600 UTC 01 November 2020
Forecast type: FROM: standard forecast or significant change
Winds: from the ENE (70 degrees) at 12 MPH (10 knots; 5.1 m/s)
Visibility: 6 or more miles (10+ km)
Ceiling: 5000 feet AGL
Clouds: scattered clouds at 2500 feet AGL
broken clouds at 5000 feet AGL
Weather: VCSH  (showers in vicinity)

MAPA DE AEROPUERTO

INFORMACIóN DE PISTA
Pista 08L Longitud 8600 ft Ancho 150 ft
Elevación 8 ft Umbral desplazado 0 ft Rumbo de pista 87
Pista 26R Longitud 8600 ft Ancho 150 ft
Elevación 8 ft Umbral desplazado 0 ft Rumbo de pista 267
Pista 08R Longitud 10506 ft Ancho 200 ft
Elevación 8 ft Umbral desplazado 0 ft Rumbo de pista 87
Pista 26L Longitud 10506 ft Ancho 200 ft
Elevación 8 ft Umbral desplazado 0 ft Rumbo de pista 267
Pista 09 Longitud 13000 ft Ancho 150 ft
Elevación 7 ft Umbral desplazado 1350 ft Rumbo de pista 87
Pista 27 Longitud 13000 ft Ancho 150 ft
Elevación 8 ft Umbral desplazado 1270 ft Rumbo de pista 267
Pista 12 Longitud 9354 ft Ancho 150 ft
Elevación 8 ft Umbral desplazado 0 ft Rumbo de pista 119
Pista 30 Longitud 9354 ft Ancho 150 ft
Elevación 8 ft Umbral desplazado 939 ft Rumbo de pista 299

FRECUANCIAS DEL AEROPUERTO
Tipo APP Nombre APP Frecuencia 120.5 MHZ
Tipo ATIS Nombre ATIS Frecuencia 119.15 MHZ
Tipo CLD Nombre CLNC DEL Frecuencia 120.35 MHZ
Tipo DEP Nombre DEP Frecuencia 119.45 MHZ
Tipo GND Nombre GND Frecuencia 121.8 MHZ
Tipo TWR Nombre TWR Frecuencia 118.3 MHZ
Tipo UNIC Nombre UNICOM Frecuencia 123 MHZ

RADIO AYUDAS DEL AEROPUERTO
Tipo VORTAC Nombre Dolphin Frecuencia 113900 KHZ
Tipo NDB Nombre Keyes Frecuencia 248 KHZ



Si desea hacer un donativo para mantenimiento de el dominio y el alojamiento web pulse en elboton donar y siga los pasos. Desde ya muchas gracias.

Powered by Virtual Airlines Manager
Ver 2.5.2